createdAt,value
2023-08-08T00:01:54.256Z,13.30
2023-08-08T00:04:22.687Z,13.20
2023-08-08T00:06:52.205Z,13.20
2023-08-08T00:09:20.509Z,13.20
2023-08-08T00:11:49.506Z,13.20
2023-08-08T00:14:17.692Z,13.10
2023-08-08T00:16:46.111Z,13.00
2023-08-08T00:19:14.537Z,13.10
2023-08-08T00:21:42.695Z,13.10
2023-08-08T00:24:12.207Z,13.00
2023-08-08T00:26:40.746Z,13.00
2023-08-08T00:29:08.902Z,13.10
2023-08-08T00:31:37.325Z,13.00
2023-08-08T00:34:05.518Z,13.00
2023-08-08T00:36:33.938Z,13.00
2023-08-08T00:39:02.078Z,13.00
2023-08-08T00:41:31.642Z,12.90
2023-08-08T00:43:59.977Z,13.00
2023-08-08T00:46:28.297Z,13.00
2023-08-08T00:48:57.076Z,13.00
2023-08-08T00:51:27.209Z,13.00
2023-08-08T00:53:56.301Z,12.90
2023-08-08T00:56:25.117Z,12.90
2023-08-08T00:58:55.069Z,12.90
2023-08-08T01:01:23.231Z,12.90
2023-08-08T01:03:53.382Z,12.80
2023-08-08T01:06:29.051Z,12.90
2023-08-08T01:09:01.453Z,12.90
2023-08-08T01:11:32.661Z,12.80
2023-08-08T01:14:03.499Z,13.00
2023-08-08T01:16:32.883Z,13.00
2023-08-08T01:19:01.352Z,12.90
2023-08-08T01:21:32.214Z,12.90
2023-08-08T01:24:09.691Z,12.90
2023-08-08T01:26:39.415Z,12.90
2023-08-08T01:29:08.007Z,12.90
2023-08-08T01:31:36.448Z,12.80
2023-08-08T01:34:04.942Z,12.80
2023-08-08T01:36:38.067Z,12.80
2023-08-08T01:39:10.391Z,12.80
2023-08-08T01:41:41.770Z,12.80
2023-08-08T01:44:10.615Z,12.80
2023-08-08T01:46:39.805Z,12.80
2023-08-08T01:49:08.392Z,12.80
2023-08-08T01:51:36.537Z,12.80
2023-08-08T01:54:05.213Z,12.80
2023-08-08T01:56:33.395Z,12.80
2023-08-08T01:59:02.953Z,12.80
2023-08-08T02:01:31.459Z,12.80
2023-08-08T02:04:00.059Z,12.80
2023-08-08T02:06:28.203Z,12.80
2023-08-08T02:08:56.356Z,12.80
2023-08-08T02:11:24.656Z,12.80
2023-08-08T02:13:52.785Z,12.80
2023-08-08T02:16:22.354Z,12.80
2023-08-08T02:18:50.900Z,12.80
2023-08-08T02:21:19.042Z,12.80
2023-08-08T02:23:47.201Z,12.80
2023-08-08T02:26:15.724Z,12.80
2023-08-08T02:28:44.913Z,12.80
2023-08-08T02:31:13.089Z,12.80
2023-08-08T02:33:43.004Z,12.80
2023-08-08T02:36:11.175Z,12.70
2023-08-08T02:38:39.345Z,12.70
2023-08-08T02:41:07.483Z,12.70
2023-08-08T02:43:35.975Z,12.80
2023-08-08T02:46:04.160Z,12.80
2023-08-08T02:48:32.609Z,12.80
2023-08-08T02:51:02.404Z,12.70
2023-08-08T02:53:30.554Z,12.70
2023-08-08T02:55:59.003Z,12.70
2023-08-08T02:58:27.445Z,12.70
2023-08-08T03:00:55.894Z,12.70
2023-08-08T03:03:25.113Z,12.70
2023-08-08T03:05:53.853Z,12.80
2023-08-08T03:08:23.759Z,12.70
2023-08-08T03:10:51.947Z,12.80
2023-08-08T03:13:20.993Z,12.70
2023-08-08T03:15:49.592Z,12.80
2023-08-08T03:18:17.862Z,12.80
2023-08-08T03:20:46.353Z,12.80
2023-08-08T03:23:14.504Z,12.80
2023-08-08T03:25:44.342Z,12.80
2023-08-08T03:28:12.683Z,12.90
2023-08-08T03:30:41.062Z,12.90
2023-08-08T03:33:09.258Z,12.80
2023-08-08T03:35:37.749Z,12.80
2023-08-08T03:38:06.391Z,12.80
2023-08-08T03:40:34.600Z,12.90
2023-08-08T03:43:04.483Z,12.90
2023-08-08T03:45:32.647Z,12.90
2023-08-08T03:48:00.884Z,12.90
2023-08-08T03:50:29.312Z,12.90
2023-08-08T03:52:57.740Z,13.00
2023-08-08T03:55:26.186Z,12.90
2023-08-08T03:57:54.790Z,12.90
2023-08-08T04:00:24.636Z,13.00
2023-08-08T04:02:53.136Z,13.10
2023-08-08T04:05:21.787Z,13.10
2023-08-08T04:07:49.979Z,13.10
2023-08-08T04:10:18.252Z,13.20
2023-08-08T04:12:46.722Z,13.20
2023-08-08T04:15:14.961Z,13.10
2023-08-08T04:17:44.813Z,13.20
2023-08-08T04:20:13.916Z,13.30
2023-08-08T04:22:42.428Z,13.30
2023-08-08T04:25:10.968Z,13.30
2023-08-08T04:27:39.195Z,13.30
2023-08-08T04:30:08.892Z,13.40
2023-08-08T04:32:37.411Z,13.40
2023-08-08T04:35:07.497Z,13.40
2023-08-08T04:37:35.700Z,13.50
2023-08-08T04:40:05.052Z,13.50
2023-08-08T04:42:33.242Z,13.50
2023-08-08T04:45:01.742Z,13.50
2023-08-08T04:47:30.025Z,13.50
2023-08-08T04:49:58.362Z,13.60
2023-08-08T04:52:28.220Z,13.60
2023-08-08T04:54:56.443Z,13.60
2023-08-08T04:57:24.656Z,13.60
2023-08-08T04:59:53.415Z,13.70
2023-08-08T05:02:21.857Z,13.60
2023-08-08T05:04:51.415Z,13.70
2023-08-08T05:07:19.579Z,13.70
2023-08-08T05:09:49.503Z,13.70
2023-08-08T05:12:17.661Z,13.80
2023-08-08T05:14:45.900Z,13.80
2023-08-08T05:17:14.047Z,13.80
2023-08-08T05:19:42.685Z,13.80
2023-08-08T05:22:10.862Z,13.90
2023-08-08T05:24:39.013Z,13.90
2023-08-08T05:27:09.127Z,13.90
2023-08-08T05:29:39.338Z,13.90
2023-08-08T05:32:09.219Z,14.00
2023-08-08T05:34:37.440Z,14.10
2023-08-08T05:37:16.703Z,14.10
2023-08-08T05:39:45.841Z,14.20
2023-08-08T05:42:15.834Z,14.20
2023-08-08T05:44:44.067Z,14.20
2023-08-08T05:47:12.506Z,14.30
2023-08-08T05:49:43.133Z,14.30
2023-08-08T05:52:11.924Z,14.40
2023-08-08T05:54:40.587Z,14.50
2023-08-08T05:57:09.357Z,14.60
2023-08-08T05:59:38.863Z,14.80
2023-08-08T06:02:07.765Z,15.00
2023-08-08T06:04:35.963Z,15.00
2023-08-08T06:07:04.162Z,14.90
2023-08-08T06:09:33.663Z,14.90
2023-08-08T06:12:02.014Z,14.90
2023-08-08T06:14:30.641Z,14.90
2023-08-08T06:17:00.905Z,15.00
2023-08-08T06:19:29.081Z,15.10
2023-08-08T06:21:57.670Z,15.10
2023-08-08T06:24:26.191Z,15.30
2023-08-08T06:26:54.594Z,15.30
2023-08-08T06:29:23.276Z,15.40
2023-08-08T06:31:51.570Z,15.40
2023-08-08T06:34:21.404Z,15.50
2023-08-08T06:36:49.669Z,15.50
2023-08-08T06:39:20.764Z,15.90
2023-08-08T06:41:48.911Z,16.30
2023-08-08T06:44:17.062Z,16.10
2023-08-08T06:46:45.638Z,16.50
2023-08-08T06:49:14.090Z,16.80
2023-08-08T06:51:43.945Z,17.00
2023-08-08T06:54:12.203Z,17.00
2023-08-08T06:56:40.383Z,17.00
2023-08-08T06:59:08.544Z,16.80
2023-08-08T07:01:37.273Z,16.70
2023-08-08T07:04:06.223Z,16.60
2023-08-08T07:06:34.789Z,16.80
2023-08-08T07:09:04.926Z,17.00
2023-08-08T07:11:33.326Z,17.00
2023-08-08T07:14:01.667Z,16.90
2023-08-08T07:16:30.127Z,16.90
2023-08-08T07:18:58.264Z,17.00
2023-08-08T07:21:26.485Z,17.00
2023-08-08T07:23:55.099Z,17.30
2023-08-08T07:26:24.617Z,17.40
2023-08-08T07:28:53.074Z,17.30
2023-08-08T07:31:21.333Z,17.30
2023-08-08T07:33:49.954Z,17.70
2023-08-08T07:36:18.199Z,17.50
2023-08-08T07:38:46.652Z,17.40
2023-08-08T07:41:14.824Z,17.30
2023-08-08T07:43:44.351Z,17.30
2023-08-08T07:46:12.636Z,17.20
2023-08-08T07:48:41.536Z,17.10
2023-08-08T07:51:10.039Z,17.00
2023-08-08T07:53:38.195Z,16.90
2023-08-08T07:56:06.574Z,17.10
2023-08-08T07:58:35.325Z,16.90
2023-08-08T08:01:05.195Z,17.10
2023-08-08T08:03:33.507Z,17.40
2023-08-08T08:06:01.987Z,17.70
2023-08-08T08:08:32.299Z,18.00
2023-08-08T08:11:00.554Z,18.10
2023-08-08T08:13:28.743Z,18.40
2023-08-08T08:15:56.938Z,18.40
2023-08-08T08:18:26.494Z,18.70
2023-08-08T08:20:54.722Z,18.50
2023-08-08T08:23:22.961Z,18.50
2023-08-08T08:25:51.945Z,18.50
2023-08-08T08:28:20.148Z,18.40
2023-08-08T08:30:49.340Z,18.40
2023-08-08T08:33:17.569Z,18.40
2023-08-08T08:35:47.272Z,18.90
2023-08-08T08:38:15.943Z,19.00
2023-08-08T08:40:47.328Z,19.40
2023-08-08T08:43:15.988Z,19.70
2023-08-08T08:45:48.954Z,20.00
2023-08-08T08:48:20.294Z,19.80
2023-08-08T08:50:50.816Z,19.70
2023-08-08T08:53:19.837Z,19.20
2023-08-08T08:55:48.418Z,18.80
2023-08-08T08:58:18.733Z,18.70
2023-08-08T09:00:48.926Z,18.50
2023-08-08T09:03:17.937Z,18.50
2023-08-08T09:05:47.154Z,18.50
2023-08-08T09:08:17.342Z,18.90
2023-08-08T09:10:45.508Z,18.80
2023-08-08T09:13:14.041Z,18.80
2023-08-08T09:15:42.421Z,18.60
2023-08-08T09:18:10.834Z,18.60
2023-08-08T09:20:38.995Z,18.20
2023-08-08T09:23:07.477Z,17.70
2023-08-08T09:25:37.864Z,17.70
2023-08-08T09:28:06.900Z,17.80
2023-08-08T09:30:35.431Z,18.00
2023-08-08T09:33:04.225Z,18.10
2023-08-08T09:35:32.753Z,18.40
2023-08-08T09:38:01.631Z,19.40
2023-08-08T09:40:30.807Z,19.80
2023-08-08T09:43:00.706Z,20.10
2023-08-08T09:45:29.006Z,20.10
2023-08-08T09:47:57.363Z,19.90
2023-08-08T09:50:26.605Z,19.70
2023-08-08T09:52:56.844Z,19.60
2023-08-08T09:55:25.679Z,19.50
2023-08-08T09:57:55.958Z,19.90
2023-08-08T10:00:28.941Z,20.00
2023-08-08T10:02:57.770Z,20.00
2023-08-08T10:05:27.635Z,19.70
2023-08-08T10:07:57.107Z,19.80
2023-08-08T10:10:26.351Z,19.90
2023-08-08T10:12:54.998Z,19.60
2023-08-08T10:15:29.792Z,19.60
2023-08-08T10:17:59.128Z,19.60
2023-08-08T10:20:28.118Z,19.60
2023-08-08T10:22:59.091Z,19.20
2023-08-08T10:25:29.742Z,19.50
2023-08-08T10:28:20.207Z,20.20
2023-08-08T10:30:57.692Z,20.30
2023-08-08T10:33:27.674Z,20.80
2023-08-08T10:35:59.952Z,20.70
2023-08-08T10:38:29.760Z,20.00
2023-08-08T10:41:01.328Z,19.60
2023-08-08T10:46:26.873Z,19.40
2023-08-08T10:48:57.750Z,19.40
2023-08-08T10:51:33.972Z,19.30
2023-08-08T10:54:06.786Z,18.80
2023-08-08T10:56:37.503Z,18.70
2023-08-08T10:59:15.791Z,18.60
2023-08-08T11:01:48.317Z,18.10
2023-08-08T11:04:17.476Z,18.40
2023-08-08T11:06:46.155Z,18.10
2023-08-08T11:09:14.405Z,18.30
2023-08-08T11:11:44.204Z,18.30
2023-08-08T11:14:14.376Z,18.40
2023-08-08T11:16:44.339Z,18.50
2023-08-08T11:19:13.316Z,18.70
2023-08-08T11:21:43.969Z,19.00
2023-08-08T11:24:13.402Z,18.80
2023-08-08T11:26:43.497Z,18.80
2023-08-08T11:29:11.701Z,18.80
2023-08-08T11:31:40.071Z,18.90
2023-08-08T11:34:11.703Z,19.00
2023-08-08T11:36:40.610Z,19.00
2023-08-08T11:39:11.032Z,19.20
2023-08-08T11:41:40.327Z,19.00
2023-08-08T11:44:09.710Z,19.10
2023-08-08T11:46:46.391Z,19.60
2023-08-08T11:49:16.827Z,20.00
2023-08-08T11:51:46.758Z,20.00
2023-08-08T11:54:15.829Z,20.40
2023-08-08T11:56:44.421Z,20.70
2023-08-08T11:59:13.585Z,20.60
2023-08-08T12:01:44.613Z,20.40
2023-08-08T12:04:13.082Z,20.50
2023-08-08T12:06:43.731Z,20.80
2023-08-08T12:09:14.609Z,20.80
2023-08-08T12:11:43.109Z,21.00
2023-08-08T12:14:12.014Z,21.50
2023-08-08T12:16:40.959Z,21.30
2023-08-08T12:19:12.698Z,21.60
2023-08-08T12:21:45.200Z,21.70
2023-08-08T12:24:13.652Z,21.80
2023-08-08T12:26:41.867Z,21.80
2023-08-08T12:29:10.002Z,22.20
2023-08-08T12:31:38.168Z,21.60
2023-08-08T12:34:07.111Z,21.70
2023-08-08T12:36:36.980Z,21.60
2023-08-08T12:39:06.825Z,21.50
2023-08-08T12:41:35.053Z,22.20
2023-08-08T12:44:04.480Z,22.30
2023-08-08T12:46:32.650Z,21.80
2023-08-08T12:49:00.881Z,21.50
2023-08-08T12:51:29.541Z,21.40
2023-08-08T12:53:57.722Z,21.40
2023-08-08T12:56:27.655Z,21.00
2023-08-08T12:58:55.959Z,21.00
2023-08-08T13:01:25.854Z,20.90
2023-08-08T13:04:16.174Z,21.20
2023-08-08T13:06:42.758Z,21.50
2023-08-08T13:11:59.186Z,22.00
2023-08-08T13:14:27.514Z,21.80
2023-08-08T13:16:55.810Z,22.00
2023-08-08T13:19:26.405Z,21.40
2023-08-08T13:21:55.753Z,21.30
2023-08-08T13:24:24.809Z,21.20
2023-08-08T13:26:53.317Z,20.80
2023-08-08T13:29:22.936Z,21.10
2023-08-08T13:31:51.394Z,21.10
2023-08-08T13:34:20.435Z,21.40
2023-08-08T13:36:48.602Z,21.40
2023-08-08T13:39:16.836Z,21.70
2023-08-08T13:41:45.017Z,21.50
2023-08-08T13:44:13.456Z,20.80
2023-08-08T13:46:43.117Z,20.40
2023-08-08T13:49:11.861Z,20.00
2023-08-08T13:51:41.698Z,20.20
2023-08-08T13:54:11.653Z,20.00
2023-08-08T13:56:39.803Z,19.90
2023-08-08T13:59:08.283Z,19.50
2023-08-08T14:01:36.487Z,19.30
2023-08-08T14:04:06.512Z,19.30
2023-08-08T14:06:34.993Z,19.30
2023-08-08T14:09:03.166Z,18.60
2023-08-08T14:11:31.364Z,17.50
2023-08-08T14:13:59.945Z,17.10
2023-08-08T14:16:28.152Z,17.40
2023-08-08T14:18:56.630Z,17.30
2023-08-08T14:21:26.546Z,17.00
2023-08-08T14:23:54.673Z,17.10
2023-08-08T14:26:22.876Z,17.30
2023-08-08T14:28:51.032Z,17.30
2023-08-08T14:31:19.316Z,17.20
2023-08-08T14:33:47.731Z,17.30
2023-08-08T14:36:16.067Z,17.40
2023-08-08T14:38:45.881Z,17.70
2023-08-08T14:41:14.339Z,17.90
2023-08-08T14:43:42.862Z,18.00
2023-08-08T14:46:11.696Z,18.00
2023-08-08T14:48:40.340Z,18.00
2023-08-08T14:51:08.702Z,18.00
2023-08-08T14:53:37.172Z,18.00
2023-08-08T14:56:06.805Z,18.00
2023-08-08T14:58:36.055Z,18.20
2023-08-08T15:01:04.698Z,18.00
2023-08-08T15:03:32.954Z,17.50
2023-08-08T15:06:01.264Z,17.40
2023-08-08T15:08:29.828Z,17.00
2023-08-08T15:10:58.018Z,17.10
2023-08-08T15:13:27.562Z,17.40
2023-08-08T15:15:56.179Z,17.00
2023-08-08T15:18:24.388Z,17.00
2023-08-08T15:20:52.608Z,17.10
2023-08-08T15:23:20.834Z,17.10
2023-08-08T15:25:49.032Z,17.00
2023-08-08T15:28:17.376Z,17.10
2023-08-08T15:30:46.943Z,17.20
2023-08-08T15:33:15.108Z,17.30
2023-08-08T15:35:44.332Z,17.50
2023-08-08T15:38:13.071Z,17.30
2023-08-08T15:40:41.773Z,17.40
2023-08-08T15:43:10.007Z,17.40
2023-08-08T15:45:38.136Z,17.40
2023-08-08T15:48:08.603Z,17.20
2023-08-08T15:50:37.180Z,17.30
2023-08-08T15:53:06.100Z,17.30
2023-08-08T15:55:34.601Z,17.00
2023-08-08T15:58:03.218Z,17.00
2023-08-08T16:00:31.954Z,16.80
2023-08-08T16:03:00.843Z,16.80
2023-08-08T16:05:30.428Z,16.70
2023-08-08T16:07:58.941Z,16.80
2023-08-08T16:10:27.125Z,16.80
2023-08-08T16:12:55.353Z,16.80
2023-08-08T16:15:25.252Z,16.80
2023-08-08T16:17:53.428Z,16.80
2023-08-08T16:20:21.892Z,16.80
2023-08-08T16:22:51.442Z,16.90
2023-08-08T16:25:20.079Z,16.80
2023-08-08T16:27:48.215Z,16.80
2023-08-08T16:30:16.390Z,16.90
2023-08-08T16:32:46.021Z,17.00
2023-08-08T16:35:15.274Z,17.00
2023-08-08T16:37:43.505Z,17.10
2023-08-08T16:40:13.486Z,17.20
2023-08-08T16:42:41.984Z,17.30
2023-08-08T16:45:11.369Z,17.40
2023-08-08T16:47:39.656Z,17.40
2023-08-08T16:50:09.506Z,17.40
2023-08-08T16:52:37.746Z,17.50
2023-08-08T16:55:07.477Z,17.50
2023-08-08T16:57:38.080Z,17.40
2023-08-08T17:00:09.125Z,17.30
2023-08-08T17:02:37.391Z,17.30
2023-08-08T17:05:07.095Z,17.30
2023-08-08T17:07:35.508Z,17.30
2023-08-08T17:10:03.729Z,17.30
2023-08-08T17:12:31.896Z,17.40
2023-08-08T17:15:01.417Z,17.30
2023-08-08T17:17:29.598Z,17.30
2023-08-08T17:19:57.837Z,17.40
2023-08-08T17:22:26.100Z,17.30
2023-08-08T17:24:54.355Z,17.30
2023-08-08T17:27:22.665Z,17.40
2023-08-08T17:29:50.894Z,17.30
2023-08-08T17:32:20.435Z,17.20
2023-08-08T17:34:48.573Z,17.20
2023-08-08T17:37:17.325Z,17.20
2023-08-08T17:39:45.467Z,17.10
2023-08-08T17:42:13.684Z,17.10
2023-08-08T17:44:41.842Z,17.10
2023-08-08T17:47:11.077Z,17.10
2023-08-08T17:49:41.276Z,17.10
2023-08-08T17:52:09.633Z,17.10
2023-08-08T17:54:37.837Z,17.10
2023-08-08T17:57:06.361Z,17.10
2023-08-08T17:59:34.526Z,17.10
2023-08-08T18:02:03.071Z,17.10
2023-08-08T18:04:32.602Z,17.10
2023-08-08T18:07:02.220Z,17.00
2023-08-08T18:09:31.328Z,17.00
2023-08-08T18:12:00.528Z,17.10
2023-08-08T18:14:30.134Z,17.10
2023-08-08T18:16:58.976Z,17.10
2023-08-08T18:19:27.176Z,17.00
2023-08-08T18:21:55.537Z,17.00
2023-08-08T18:24:26.304Z,16.90
2023-08-08T18:26:54.437Z,16.80
2023-08-08T18:29:22.657Z,16.70
2023-08-08T18:31:50.831Z,16.80
2023-08-08T18:34:19.013Z,16.70
2023-08-08T18:36:47.477Z,16.70
2023-08-08T18:39:15.682Z,16.70
2023-08-08T18:41:45.245Z,16.70
2023-08-08T18:44:13.424Z,16.60
2023-08-08T18:46:43.066Z,16.50
2023-08-08T18:49:11.850Z,16.50
2023-08-08T18:51:40.061Z,16.40
2023-08-08T18:54:09.939Z,16.40
2023-08-08T18:56:38.163Z,16.50
2023-08-08T18:59:07.824Z,16.50
2023-08-08T19:01:36.425Z,16.50
2023-08-08T19:04:04.644Z,16.40
2023-08-08T19:06:32.824Z,16.50
2023-08-08T19:09:01.682Z,16.40
2023-08-08T19:11:29.820Z,16.40
2023-08-08T19:13:58.016Z,16.40
2023-08-08T19:16:27.600Z,16.40
2023-08-08T19:18:55.806Z,16.30
2023-08-08T19:21:23.965Z,16.30
2023-08-08T19:23:52.110Z,16.30
2023-08-08T19:26:20.300Z,16.20
2023-08-08T19:28:49.051Z,16.20
2023-08-08T19:31:17.629Z,16.20
2023-08-08T19:33:59.629Z,16.20
2023-08-08T19:36:34.176Z,16.20
2023-08-08T19:39:02.355Z,16.20
2023-08-08T19:41:30.631Z,16.20
2023-08-08T19:43:58.896Z,16.10
2023-08-08T19:46:27.164Z,16.00
2023-08-08T19:48:56.745Z,16.00
2023-08-08T19:51:25.146Z,15.90
2023-08-08T19:53:53.399Z,16.00
2023-08-08T19:56:21.813Z,16.00
2023-08-08T19:58:50.345Z,15.90
2023-08-08T20:01:18.509Z,15.90
2023-08-08T20:03:46.710Z,15.80
2023-08-08T20:06:16.302Z,15.70
2023-08-08T20:08:44.820Z,15.70
2023-08-08T20:11:13.068Z,15.80
2023-08-08T20:13:41.654Z,15.80
2023-08-08T20:16:10.165Z,15.70
2023-08-08T20:18:38.774Z,15.60
2023-08-08T20:21:07.155Z,15.50
2023-08-08T20:23:36.709Z,15.40
2023-08-08T20:26:05.386Z,15.40
2023-08-08T20:28:33.546Z,15.20
2023-08-08T20:31:03.117Z,15.20
2023-08-08T20:33:31.551Z,15.10
2023-08-08T20:35:59.818Z,15.10
2023-08-08T20:38:28.028Z,15.00
2023-08-08T20:40:57.704Z,15.00
2023-08-08T20:43:26.328Z,15.10
2023-08-08T20:45:54.905Z,15.00
2023-08-08T20:48:23.129Z,15.00
2023-08-08T20:50:51.713Z,14.90
2023-08-08T20:53:19.877Z,14.80
2023-08-08T20:55:48.046Z,14.90
2023-08-08T20:58:17.726Z,14.80
2023-08-08T21:00:46.369Z,14.80
2023-08-08T21:03:14.566Z,14.80
2023-08-08T21:05:43.144Z,14.80
2023-08-08T21:08:11.291Z,14.70
2023-08-08T21:10:39.873Z,14.80
2023-08-08T21:13:08.027Z,14.80
2023-08-08T21:15:37.770Z,14.80
2023-08-08T21:18:06.416Z,14.80
2023-08-08T21:20:34.951Z,14.80
2023-08-08T21:23:03.520Z,14.70
2023-08-08T21:25:31.696Z,14.70
2023-08-08T21:28:02.145Z,14.70
2023-08-08T21:30:30.279Z,14.50
2023-08-08T21:33:00.204Z,14.60
2023-08-08T21:35:28.492Z,14.60
2023-08-08T21:37:57.008Z,14.50
2023-08-08T21:40:25.558Z,14.50
2023-08-08T21:42:54.641Z,14.50
2023-08-08T21:45:24.653Z,14.60
2023-08-08T21:47:53.156Z,14.60
2023-08-08T21:50:22.670Z,14.60
2023-08-08T21:52:51.152Z,14.60
2023-08-08T21:55:19.885Z,14.70
2023-08-08T21:57:48.823Z,14.70
2023-08-08T22:00:18.876Z,14.60
2023-08-08T22:02:47.144Z,14.70
2023-08-08T22:05:15.294Z,14.60
2023-08-08T22:07:45.225Z,14.60
2023-08-08T22:10:13.566Z,14.60
2023-08-08T22:12:41.877Z,14.70
2023-08-08T22:15:11.675Z,14.60
2023-08-08T22:17:45.290Z,14.60
2023-08-08T22:20:18.800Z,14.60
2023-08-08T22:22:49.469Z,14.70
2023-08-08T22:25:20.417Z,14.70
2023-08-08T22:27:48.759Z,14.70
2023-08-08T22:30:17.205Z,14.70
2023-08-08T22:32:45.992Z,14.60
2023-08-08T22:35:14.214Z,14.60
2023-08-08T22:37:42.648Z,14.60
2023-08-08T22:40:13.634Z,14.60
2023-08-08T22:42:43.298Z,14.70
2023-08-08T22:45:12.820Z,14.70
2023-08-08T22:47:41.319Z,14.60
2023-08-08T22:50:10.831Z,14.60
2023-08-08T22:52:39.205Z,14.70
2023-08-08T22:55:08.338Z,14.60
2023-08-08T22:57:38.110Z,14.60
2023-08-08T23:00:08.611Z,14.60
2023-08-08T23:02:37.340Z,14.60
2023-08-08T23:05:06.559Z,14.60
2023-08-08T23:07:35.156Z,14.60
2023-08-08T23:10:03.418Z,14.60
2023-08-08T23:12:32.008Z,14.60
2023-08-08T23:15:01.542Z,14.60
2023-08-08T23:17:30.631Z,14.50
2023-08-08T23:19:59.462Z,14.60
2023-08-08T23:22:27.620Z,14.60
2023-08-08T23:24:55.820Z,14.60
2023-08-08T23:27:24.059Z,14.60
2023-08-08T23:29:52.613Z,14.60
2023-08-08T23:32:22.247Z,14.60
2023-08-08T23:34:50.901Z,14.60
2023-08-08T23:37:20.997Z,14.60
2023-08-08T23:39:49.573Z,14.50
2023-08-08T23:42:18.016Z,14.60
2023-08-08T23:44:46.147Z,14.50
2023-08-08T23:47:14.645Z,14.60
2023-08-08T23:49:44.487Z,14.60
2023-08-08T23:52:12.632Z,14.50
2023-08-08T23:54:41.334Z,14.50
2023-08-08T23:57:09.517Z,14.50
2023-08-08T23:59:38.242Z,14.50
